Time;durP1;ratioP1;P1;durP2;ratioP2;P2;SDS_P1;SDS_P2;PMS_P1;PMS_P2;Temp;Humidity;BMP_temperature;BMP_pressure;BME280_temperature;BME280_humidity;BME280_pressure;Samples;Min_cycle;Max_cycle;Signal;HPM_P1;HPM_P2
2022/04/11 00:01:27;;;;;;;8.45;7.85;;;;;;;;;;5071238;28;20075;-48
2022/04/11 00:03:53;;;;;;;7.30;6.80;;;;;;;;;;5068192;28;20140;-55
2022/04/11 00:06:18;;;;;;;7.65;7.05;;;;;;;;;;5075190;28;20211;-46
2022/04/11 00:08:43;;;;;;;8.70;8.10;;;;;;;;;;5077921;28;20480;-48
2022/04/11 00:11:09;;;;;;;8.02;7.43;;;;;;;;;;5080035;28;20028;-46
2022/04/11 00:13:34;;;;;;;7.35;6.85;;;;;;;;;;5077108;28;20100;-46
2022/04/11 00:16:00;;;;;;;7.63;7.05;;;;;;;;;;5072439;28;20044;-48
2022/04/11 00:18:25;;;;;;;7.45;6.88;;;;;;;;;;5074081;28;20395;-46
2022/04/11 00:20:51;;;;;;;6.97;6.47;;;;;;;;;;5075636;28;20032;-46
2022/04/11 00:23:16;;;;;;;6.78;6.28;;;;;;;;;;5073889;28;20059;-46
2022/04/11 00:25:42;;;;;;;6.75;6.15;;;;;;;;;;5076242;28;20036;-47
2022/04/11 00:28:07;;;;;;;6.50;6.00;;;;;;;;;;5078895;28;20040;-47
2022/04/11 00:30:33;;;;;;;6.88;6.32;;;;;;;;;;5075306;28;20533;-47
2022/04/11 00:32:58;;;;;;;7.22;6.53;;;;;;;;;;5072339;28;20072;-50
2022/04/11 00:35:23;;;;;;;6.05;5.60;;;;;;;;;;5074359;28;20773;-50
2022/04/11 00:37:49;;;;;;;5.47;5.07;;;;;;;;;;5075086;28;20028;-47
2022/04/11 00:40:14;;;;;;;6.07;5.68;;;;;;;;;;5076321;28;20033;-46
2022/04/11 00:42:40;;;;;;;6.50;6.00;;;;;;;;;;5072839;28;20373;-46
2022/04/11 00:45:06;;;;;;;5.55;5.05;;;;;;;;;;5074465;28;20036;-47
2022/04/11 00:47:32;;;;;;;6.50;6.00;;;;;;;;;;5075255;28;20042;-46
2022/04/11 00:50:11;;;;;;;6.88;6.28;;;;;;;;;;5074412;28;20111;-46
2022/04/11 00:52:40;;;;;;;5.97;5.55;;;;;;;;;;5073597;28;20354;-46
2022/04/11 00:55:07;;;;;;;6.68;6.18;;;;;;;;;;5074914;28;20086;-47
2022/04/11 00:57:33;;;;;;;6.30;5.80;;;;;;;;;;5073236;28;20031;-47
2022/04/11 00:59:59;;;;;;;6.05;5.55;;;;;;;;;;5074281;28;20031;-47
2022/04/11 01:02:25;;;;;;;5.35;4.93;;;;;;;;;;5075009;28;20082;-47
2022/04/11 01:04:51;;;;;;;7.25;6.65;;;;;;;;;;5072372;28;20430;-46
2022/04/11 01:07:16;;;;;;;6.10;5.60;;;;;;;;;;5075681;28;20028;-49
2022/04/11 01:09:42;;;;;;;6.50;6.00;;;;;;;;;;5077262;28;20404;-48
2022/04/11 01:12:08;;;;;;;6.25;5.75;;;;;;;;;;5076137;28;20047;-48
2022/04/11 01:14:33;;;;;;;6.63;5.97;;;;;;;;;;5076148;28;20047;-46
2022/04/11 01:16:59;;;;;;;6.55;6.05;;;;;;;;;;5075346;28;20090;-49
2022/04/11 01:19:25;;;;;;;7.70;6.82;;;;;;;;;;5077480;28;20544;-47
2022/04/11 01:21:51;;;;;;;6.07;5.57;;;;;;;;;;5059477;28;20060;-46
2022/04/11 01:24:20;;;;;;;6.55;6.05;;;;;;;;;;5076551;28;20032;-47
2022/04/11 01:26:46;;;;;;;5.43;5.03;;;;;;;;;;5072349;28;20465;-46
2022/04/11 01:29:12;;;;;;;7.10;6.40;;;;;;;;;;5077232;28;20029;-50
2022/04/11 01:31:38;;;;;;;16.88;5.97;;;;;;;;;;5071166;28;20093;-47
2022/04/11 01:34:04;;;;;;;6.15;5.70;;;;;;;;;;5080111;28;20036;-46
2022/04/11 01:36:29;;;;;;;6.80;6.18;;;;;;;;;;5071878;28;20032;-46
2022/04/11 01:38:54;;;;;;;5.63;5.22;;;;;;;;;;5079767;28;20036;-46
2022/04/11 01:41:20;;;;;;;5.43;5.03;;;;;;;;;;5075361;28;20064;-47
2022/04/11 01:43:46;;;;;;;7.65;5.75;;;;;;;;;;5073921;28;20460;-47
2022/04/11 01:46:11;;;;;;;6.22;5.72;;;;;;;;;;5072133;28;20040;-49
2022/04/11 01:48:37;;;;;;;5.43;5.03;;;;;;;;;;5075514;28;20043;-47
2022/04/11 01:51:02;;;;;;;6.00;5.50;;;;;;;;;;5078566;28;20032;-47
2022/04/11 01:53:28;;;;;;;5.72;5.13;;;;;;;;;;5076630;28;20385;-46
2022/04/11 01:55:53;;;;;;;6.15;5.55;;;;;;;;;;5070771;28;20043;-46
2022/04/11 01:58:18;;;;;;;6.80;6.30;;;;;;;;;;5078258;28;20043;-47
2022/04/11 02:00:45;;;;;;;9.85;5.65;;;;;;;;;;5074791;28;20047;-48
2022/04/11 02:03:11;;;;;;;5.55;5.15;;;;;;;;;;5074179;28;20097;-46
2022/04/11 02:05:37;;;;;;;6.30;5.80;;;;;;;;;;5074796;28;20075;-45
2022/04/11 02:08:04;;;;;;;6.35;5.28;;;;;;;;;;5077456;28;20525;-47
2022/04/11 02:10:30;;;;;;;6.60;6.10;;;;;;;;;;5076349;28;20423;-45
2022/04/11 02:12:56;;;;;;;5.53;5.07;;;;;;;;;;5079697;28;20036;-47
2022/04/11 02:15:22;;;;;;;5.70;5.20;;;;;;;;;;5069820;28;20058;-47
2022/04/11 02:17:49;;;;;;;5.43;5.03;;;;;;;;;;5073533;28;20469;-46
2022/04/11 02:20:16;;;;;;;5.20;4.80;;;;;;;;;;5074200;28;20052;-46
2022/04/11 02:22:55;;;;;;;6.18;5.63;;;;;;;;;;5073131;28;20032;-45
2022/04/11 02:25:22;;;;;;;5.43;4.93;;;;;;;;;;5071850;28;20036;-47
2022/04/11 02:27:48;;;;;;;6.18;5.70;;;;;;;;;;5077521;28;20036;-49
2022/04/11 02:30:16;;;;;;;6.05;5.60;;;;;;;;;;5073838;28;20253;-46
2022/04/11 02:32:42;;;;;;;5.93;5.43;;;;;;;;;;5070550;28;20032;-45
2022/04/11 02:35:07;;;;;;;5.15;4.75;;;;;;;;;;5071582;28;20036;-47
2022/04/11 02:37:33;;;;;;;5.95;5.55;;;;;;;;;;5073818;28;20031;-46
2022/04/11 02:39:59;;;;;;;5.03;4.63;;;;;;;;;;5073631;28;20048;-47
2022/04/11 02:42:26;;;;;;;6.22;5.68;;;;;;;;;;5071582;28;20035;-47
2022/04/11 02:44:52;;;;;;;5.18;4.78;;;;;;;;;;5072043;28;20036;-46
2022/04/11 02:47:19;;;;;;;5.53;5.13;;;;;;;;;;5075591;28;20408;-47
2022/04/11 02:49:45;;;;;;;6.32;5.80;;;;;;;;;;5054876;28;20186;-47
2022/04/11 02:52:11;;;;;;;6.32;5.53;;;;;;;;;;5073352;28;20107;-48
2022/04/11 02:54:37;;;;;;;5.68;5.25;;;;;;;;;;5073726;28;20111;-47
2022/04/11 02:57:03;;;;;;;6.40;5.90;;;;;;;;;;5075980;28;20039;-49
2022/04/11 02:59:29;;;;;;;7.05;6.45;;;;;;;;;;5078051;28;20033;-48
2022/04/11 03:01:55;;;;;;;7.97;7.28;;;;;;;;;;5079178;28;20366;-46
2022/04/11 03:04:21;;;;;;;7.28;6.68;;;;;;;;;;5082439;28;20111;-46
2022/04/11 03:06:46;;;;;;;6.10;5.60;;;;;;;;;;5078757;28;20433;-46
2022/04/11 03:09:12;;;;;;;6.95;6.20;;;;;;;;;;5076954;28;20079;-47
2022/04/11 03:11:37;;;;;;;6.03;5.53;;;;;;;;;;5078164;28;20036;-47
2022/04/11 03:14:03;;;;;;;5.28;4.85;;;;;;;;;;5077145;28;20063;-48
2022/04/11 03:16:28;;;;;;;5.28;4.88;;;;;;;;;;5078737;28;20032;-47
2022/04/11 03:18:53;;;;;;;5.65;5.25;;;;;;;;;;5077321;28;20048;-47
2022/04/11 03:21:19;;;;;;;5.18;4.78;;;;;;;;;;5076834;28;20489;-47
2022/04/11 03:23:44;;;;;;;4.85;4.45;;;;;;;;;;5077526;28;20236;-50
2022/04/11 03:26:10;;;;;;;5.82;5.32;;;;;;;;;;5076842;28;20052;-46
2022/04/11 03:28:35;;;;;;;5.15;4.75;;;;;;;;;;5083137;28;20032;-47
2022/04/11 03:31:01;;;;;;;5.50;5.00;;;;;;;;;;5083075;28;20032;-47
2022/04/11 03:33:26;;;;;;;5.20;4.70;;;;;;;;;;5078014;28;20032;-46
2022/04/11 03:35:51;;;;;;;5.93;5.43;;;;;;;;;;5075527;28;20097;-45
2022/04/11 03:38:17;;;;;;;5.93;5.03;;;;;;;;;;5058521;28;20040;-47
2022/04/11 03:40:43;;;;;;;7.75;5.18;;;;;;;;;;5080290;28;20028;-47
2022/04/11 03:43:09;;;;;;;4.78;4.38;;;;;;;;;;5079041;28;20024;-47
2022/04/11 03:45:34;;;;;;;5.15;4.75;;;;;;;;;;5070204;28;20177;-48
2022/04/11 03:48:00;;;;;;;5.68;5.28;;;;;;;;;;5075157;28;20660;-48
2022/04/11 03:50:25;;;;;;;7.43;6.70;;;;;;;;;;5080023;28;20036;-53
2022/04/11 03:52:51;;;;;;;6.30;5.80;;;;;;;;;;5077066;28;20027;-54
2022/04/11 03:55:16;;;;;;;6.80;6.15;;;;;;;;;;5073678;28;20039;-48
2022/04/11 03:57:41;;;;;;;5.60;5.20;;;;;;;;;;5076863;28;20449;-47
2022/04/11 04:00:08;;;;;;;5.70;5.20;;;;;;;;;;5078150;28;20460;-54
2022/04/11 04:02:34;;;;;;;6.90;6.35;;;;;;;;;;5075160;28;20024;-47
2022/04/11 04:04:59;;;;;;;5.75;5.35;;;;;;;;;;5074957;28;20445;-49
2022/04/11 04:07:25;;;;;;;8.73;7.97;;;;;;;;;;5078072;28;20056;-45
2022/04/11 04:09:50;;;;;;;7.10;6.60;;;;;;;;;;5079388;28;20029;-45
2022/04/11 04:12:20;;;;;;;6.55;5.97;;;;;;;;;;5080892;28;20182;-45
2022/04/11 04:14:46;;;;;;;4.97;4.57;;;;;;;;;;5076241;28;20603;-46
2022/04/11 04:17:11;;;;;;;5.32;4.93;;;;;;;;;;5076264;28;20036;-46
2022/04/11 04:19:37;;;;;;;4.85;4.45;;;;;;;;;;5077052;28;20039;-47
2022/04/11 04:22:03;;;;;;;6.10;5.10;;;;;;;;;;5078823;28;20028;-46
2022/04/11 04:24:28;;;;;;;6.00;5.57;;;;;;;;;;5078200;28;20038;-50
2022/04/11 04:26:53;;;;;;;6.45;5.85;;;;;;;;;;5074059;28;20055;-50
2022/04/11 04:29:20;;;;;;;5.68;5.22;;;;;;;;;;5080288;28;20047;-51
2022/04/11 04:31:47;;;;;;;6.50;5.15;;;;;;;;;;5074401;28;20112;-52
2022/04/11 04:34:13;;;;;;;5.32;4.93;;;;;;;;;;5076402;28;20047;-51
2022/04/11 04:36:38;;;;;;;5.55;5.05;;;;;;;;;;5055192;28;20394;-53
2022/04/11 04:39:04;;;;;;;5.03;4.63;;;;;;;;;;5070173;28;20039;-52
2022/04/11 04:41:29;;;;;;;4.53;4.13;;;;;;;;;;5079342;28;20429;-50
2022/04/11 04:43:55;;;;;;;5.35;4.85;;;;;;;;;;5074734;28;20036;-50
2022/04/11 04:46:20;;;;;;;5.22;4.82;;;;;;;;;;5070971;28;20036;-52
2022/04/11 04:48:45;;;;;;;5.13;4.72;;;;;;;;;;5071599;28;20462;-51
2022/04/11 04:51:11;;;;;;;4.85;4.45;;;;;;;;;;5070708;28;20124;-51
2022/04/11 04:53:37;;;;;;;6.05;5.55;;;;;;;;;;5070526;28;20119;-53
2022/04/11 04:56:02;;;;;;;5.15;4.75;;;;;;;;;;5069734;28;20105;-53
2022/04/11 04:58:28;;;;;;;4.90;4.50;;;;;;;;;;5068840;28;20037;-54
2022/04/11 05:00:53;;;;;;;8.57;4.60;;;;;;;;;;5070146;28;20130;-52
2022/04/11 05:03:18;;;;;;;6.97;6.28;;;;;;;;;;5066285;28;20128;-54
2022/04/11 05:05:44;;;;;;;4.97;4.57;;;;;;;;;;5071077;28;20476;-52
2022/04/11 05:08:09;;;;;;;5.93;5.53;;;;;;;;;;5070345;28;20220;-54
2022/04/11 05:10:34;;;;;;;5.88;5.38;;;;;;;;;;5069310;28;20119;-48
2022/04/11 05:13:01;;;;;;;5.00;4.60;;;;;;;;;;5075551;28;20043;-46
2022/04/11 05:15:26;;;;;;;6.10;5.60;;;;;;;;;;5077025;28;20038;-46
2022/04/11 05:17:53;;;;;;;5.15;4.75;;;;;;;;;;5075997;28;20032;-46
2022/04/11 05:20:18;;;;;;;6.00;5.57;;;;;;;;;;5075305;28;20051;-46
2022/04/11 05:22:43;;;;;;;4.72;4.32;;;;;;;;;;5077548;28;20074;-46
2022/04/11 05:25:09;;;;;;;5.53;5.13;;;;;;;;;;5074084;28;20054;-51
2022/04/11 05:27:34;;;;;;;6.07;5.57;;;;;;;;;;5076038;28;20037;-52
2022/04/11 05:30:00;;;;;;;6.60;6.03;;;;;;;;;;5072672;28;20044;-47
2022/04/11 05:32:26;;;;;;;7.97;7.18;;;;;;;;;;5072350;28;20124;-48
2022/04/11 05:34:51;;;;;;;8.60;6.30;;;;;;;;;;5071647;28;20028;-47
2022/04/11 05:37:16;;;;;;;5.85;5.35;;;;;;;;;;5072918;28;20036;-46
2022/04/11 05:39:42;;;;;;;5.95;5.40;;;;;;;;;;5071968;28;20101;-55
2022/04/11 05:42:08;;;;;;;4.90;4.50;;;;;;;;;;5074434;28;20036;-54
2022/04/11 05:44:33;;;;;;;6.10;5.38;;;;;;;;;;5069951;28;20032;-46
2022/04/11 05:46:58;;;;;;;5.15;4.75;;;;;;;;;;5053432;28;20029;-46
2022/04/11 05:49:24;;;;;;;4.90;4.50;;;;;;;;;;5072101;28;20047;-46
2022/04/11 05:51:50;;;;;;;5.30;4.80;;;;;;;;;;5072171;28;20040;-54
2022/04/11 05:54:15;;;;;;;5.45;4.97;;;;;;;;;;5074565;28;20043;-54
2022/04/11 05:56:41;;;;;;;4.75;4.35;;;;;;;;;;5073161;28;20050;-53
2022/04/11 05:59:08;;;;;;;5.70;4.78;;;;;;;;;;5070166;28;20040;-47
2022/04/11 06:01:35;;;;;;;5.80;4.68;;;;;;;;;;5076695;28;20047;-47
2022/04/11 06:04:00;;;;;;;6.18;5.57;;;;;;;;;;5073620;28;20409;-46
2022/04/11 06:06:26;;;;;;;7.00;5.43;;;;;;;;;;5069481;28;20202;-48
2022/04/11 06:08:51;;;;;;;5.25;4.85;;;;;;;;;;5070443;28;20067;-46
2022/04/11 06:11:17;;;;;;;5.45;4.95;;;;;;;;;;5072805;28;20439;-53
2022/04/11 06:13:45;;;;;;;5.10;4.70;;;;;;;;;;5071309;28;20495;-52
2022/04/11 06:16:10;;;;;;;5.93;5.32;;;;;;;;;;5073166;28;20474;-53
2022/04/11 06:18:36;;;;;;;5.75;5.25;;;;;;;;;;5067990;28;20051;-47
2022/04/11 06:21:01;;;;;;;5.05;4.65;;;;;;;;;;5075239;28;20051;-48
2022/04/11 06:23:27;;;;;;;5.35;4.85;;;;;;;;;;5075037;28;20052;-45
2022/04/11 06:25:52;;;;;;;5.03;4.63;;;;;;;;;;5072908;28;20169;-49
2022/04/11 06:28:18;;;;;;;4.60;4.20;;;;;;;;;;5069318;28;20132;-48
2022/04/11 06:30:43;;;;;;;4.68;4.28;;;;;;;;;;5071189;28;20111;-46
2022/04/11 06:33:08;;;;;;;5.22;4.72;;;;;;;;;;5074257;28;20036;-47
2022/04/11 06:35:33;;;;;;;4.80;4.40;;;;;;;;;;5070315;28;20036;-46
2022/04/11 06:37:59;;;;;;;5.25;4.75;;;;;;;;;;5074171;28;20043;-46
2022/04/11 06:40:24;;;;;;;5.90;5.40;;;;;;;;;;5077305;28;20039;-48
2022/04/11 06:42:50;;;;;;;4.80;4.40;;;;;;;;;;5080366;28;20024;-46
2022/04/11 06:45:15;;;;;;;5.13;4.72;;;;;;;;;;5080220;28;20035;-46
2022/04/11 06:47:42;;;;;;;6.03;5.53;;;;;;;;;;5076106;28;20032;-46
2022/04/11 06:50:07;;;;;;;6.55;6.05;;;;;;;;;;5075218;28;20055;-54
2022/04/11 06:52:33;;;;;;;5.38;4.97;;;;;;;;;;5080868;28;20470;-53
2022/04/11 06:54:58;;;;;;;15.70;4.55;;;;;;;;;;5081097;28;20029;-55
2022/04/11 06:57:24;;;;;;;5.30;4.90;;;;;;;;;;5074986;28;20024;-54
2022/04/11 06:59:50;;;;;;;4.78;4.38;;;;;;;;;;5072518;28;20052;-46
2022/04/11 07:02:16;;;;;;;5.95;5.45;;;;;;;;;;5079149;28;20089;-46
2022/04/11 07:04:42;;;;;;;5.00;4.60;;;;;;;;;;5078992;28;20631;-53
2022/04/11 07:07:07;;;;;;;4.40;4.00;;;;;;;;;;5077347;28;20856;-53
2022/04/11 07:09:32;;;;;;;4.85;4.45;;;;;;;;;;5067392;28;20172;-52
2022/04/11 07:11:58;;;;;;;5.05;4.65;;;;;;;;;;5076245;28;20574;-54
2022/04/11 07:14:24;;;;;;;5.13;4.72;;;;;;;;;;5072078;28;20096;-53
2022/04/11 07:16:51;;;;;;;5.75;5.25;;;;;;;;;;5070973;28;20238;-53
2022/04/11 07:19:17;;;;;;;6.18;5.68;;;;;;;;;;5070329;28;20036;-55
2022/04/11 07:21:42;;;;;;;5.95;5.45;;;;;;;;;;5072900;28;20040;-54
2022/04/11 07:24:08;;;;;;;6.03;5.55;;;;;;;;;;5072267;28;21365;-54
2022/04/11 07:26:33;;;;;;;6.93;6.43;;;;;;;;;;5068719;28;20134;-55
2022/04/11 07:28:58;;;;;;;6.10;5.65;;;;;;;;;;5074358;28;20032;-55
2022/04/11 07:31:24;;;;;;;6.25;5.78;;;;;;;;;;5065968;28;20039;-57
2022/04/11 07:33:50;;;;;;;6.53;6.03;;;;;;;;;;5071889;28;20366;-56
2022/04/11 07:36:15;;;;;;;7.03;6.53;;;;;;;;;;5072167;28;20036;-57
2022/04/11 07:38:41;;;;;;;6.55;6.05;;;;;;;;;;5072570;28;20032;-56
2022/04/11 07:41:06;;;;;;;6.47;5.97;;;;;;;;;;5068941;28;20053;-55
2022/04/11 07:43:34;;;;;;;7.75;7.15;;;;;;;;;;5067089;28;20377;-55
2022/04/11 07:46:01;;;;;;;5.95;5.45;;;;;;;;;;5072170;28;20056;-54
2022/04/11 07:48:26;;;;;;;6.43;5.93;;;;;;;;;;5068814;28;20127;-55
2022/04/11 07:50:52;;;;;;;7.05;6.55;;;;;;;;;;5069224;28;20139;-56
2022/04/11 07:53:17;;;;;;;5.82;5.43;;;;;;;;;;5070041;28;20078;-57
2022/04/11 07:55:44;;;;;;;6.47;5.97;;;;;;;;;;5069220;28;20043;-55
2022/04/11 07:58:09;;;;;;;7.05;6.55;;;;;;;;;;5070958;28;20032;-55
2022/04/11 08:00:34;;;;;;;8.80;8.25;;;;;;;;;;5078713;28;20094;-55
2022/04/11 08:03:00;;;;;;;9.63;9.02;;;;;;;;;;5075498;28;20036;-55
2022/04/11 08:05:25;;;;;;;8.63;8.05;;;;;;;;;;5075632;28;20032;-54
2022/04/11 08:07:51;;;;;;;9.27;8.65;;;;;;;;;;5077428;28;20039;-55
2022/04/11 08:10:17;;;;;;;7.57;7.07;;;;;;;;;;5076248;28;20502;-55
2022/04/11 08:12:56;;;;;;;6.78;6.28;;;;;;;;;;5075174;28;20040;-55
2022/04/11 08:15:22;;;;;;;22.00;20.80;;;;;;;;;;5073318;28;20029;-52
2022/04/11 08:17:48;;;;;;;27.90;26.40;;;;;;;;;;5076589;28;20028;-55
2022/04/11 08:20:14;;;;;;;27.52;26.08;;;;;;;;;;5080025;28;20044;-56
2022/04/11 08:22:39;;;;;;;36.40;34.33;;;;;;;;;;5076597;28;20308;-55
2022/04/11 08:25:05;;;;;;;29.77;28.15;;;;;;;;;;5077005;28;20040;-56
2022/04/11 08:27:30;;;;;;;31.65;30.00;;;;;;;;;;5074743;28;20036;-56
2022/04/11 08:29:56;;;;;;;28.80;27.30;;;;;;;;;;5075023;28;20362;-55
2022/04/11 08:32:21;;;;;;;32.88;31.17;;;;;;;;;;5075881;28;20089;-55
2022/04/11 08:34:46;;;;;;;31.23;29.48;;;;;;;;;;5070184;28;20077;-56
2022/04/11 08:37:12;;;;;;;32.00;30.30;;;;;;;;;;5070094;28;20115;-56
2022/04/11 08:39:38;;;;;;;27.33;25.90;;;;;;;;;;5071868;28;20032;-55
2022/04/11 08:42:04;;;;;;;28.30;26.80;;;;;;;;;;5072058;28;20113;-55
2022/04/11 08:44:32;;;;;;;14.77;13.93;;;;;;;;;;5073840;28;20024;-56
2022/04/11 08:47:01;;;;;;;14.82;13.80;;;;;;;;;;5072829;28;20038;-56
2022/04/11 08:49:28;;;;;;;14.60;13.77;;;;;;;;;;5074291;28;20059;-53
2022/04/11 08:51:53;;;;;;;11.52;10.80;;;;;;;;;;5074721;28;20124;-55
2022/04/11 08:54:19;;;;;;;18.60;17.45;;;;;;;;;;5072970;28;20115;-55
2022/04/11 08:56:45;;;;;;;19.67;18.58;;;;;;;;;;5072438;28;20109;-56
2022/04/11 08:59:10;;;;;;;18.20;17.17;;;;;;;;;;5072616;28;20446;-54
2022/04/11 09:01:36;;;;;;;16.42;15.52;;;;;;;;;;5068569;28;20542;-55
2022/04/11 09:04:01;;;;;;;13.65;12.85;;;;;;;;;;5071969;28;20772;-49
2022/04/11 09:06:31;;;;;;;13.32;12.55;;;;;;;;;;5072582;28;20032;-55
2022/04/11 09:09:00;;;;;;;14.65;13.82;;;;;;;;;;5068983;28;20032;-53
2022/04/11 09:11:33;;;;;;;17.48;16.45;;;;;;;;;;5074032;28;21379;-55
2022/04/11 09:14:01;;;;;;;15.13;14.23;;;;;;;;;;5070226;28;20039;-55
2022/04/11 09:16:27;;;;;;;14.85;13.98;;;;;;;;;;5073763;28;20089;-46
2022/04/11 09:18:54;;;;;;;25.30;23.95;;;;;;;;;;5074232;28;20044;-52
2022/04/11 09:21:22;;;;;;;19.58;18.42;;;;;;;;;;5071803;28;20043;-46
2022/04/11 09:23:49;;;;;;;11.05;10.35;;;;;;;;;;5073058;28;20549;-47
2022/04/11 09:26:20;;;;;;;25.80;24.40;;;;;;;;;;5073200;28;20112;-54
2022/04/11 09:29:03;;;;;;;16.40;15.45;;;;;;;;;;5057977;28;20165;-55
2022/04/11 09:31:29;;;;;;;17.85;16.75;;;;;;;;;;5073088;28;20031;-55
2022/04/11 09:33:55;;;;;;;43.40;41.20;;;;;;;;;;5073003;28;20067;-55
2022/04/11 09:36:21;;;;;;;30.17;28.60;;;;;;;;;;5076432;28;20207;-53
2022/04/11 09:39:00;;;;;;;48.30;45.80;;;;;;;;;;5074231;28;20033;-55
2022/04/11 09:41:29;;;;;;;51.85;49.03;;;;;;;;;;5073384;28;20029;-55
2022/04/11 09:43:56;;;;;;;49.13;46.60;;;;;;;;;;5073317;28;20036;-49
2022/04/11 09:46:22;;;;;;;74.38;70.68;;;;;;;;;;5076331;28;20028;-46
2022/04/11 09:48:50;;;;;;;65.28;62.00;;;;;;;;;;5073481;28;20044;-54
2022/04/11 09:51:16;;;;;;;71.35;67.80;;;;;;;;;;5075448;28;20043;-55
2022/04/11 09:53:43;;;;;;;72.15;68.55;;;;;;;;;;5073808;28;20723;-54
2022/04/11 09:56:09;;;;;;;76.32;72.55;;;;;;;;;;5078872;28;20031;-47
2022/04/11 09:58:37;;;;;;;88.82;84.07;;;;;;;;;;5078482;28;20028;-49
2022/04/11 10:01:04;;;;;;;64.30;61.08;;;;;;;;;;5075906;28;20047;-50
2022/04/11 10:03:30;;;;;;;58.67;55.70;;;;;;;;;;5076985;28;20119;-56
2022/04/11 10:05:57;;;;;;;67.40;63.97;;;;;;;;;;5075879;28;20481;-54
2022/04/11 10:08:27;;;;;;;48.33;45.85;;;;;;;;;;5076481;28;20043;-46
2022/04/11 10:10:54;;;;;;;88.10;83.65;;;;;;;;;;5074447;28;20124;-51
2022/04/11 10:13:20;;;;;;;55.40;52.47;;;;;;;;;;5070559;28;20044;-53
2022/04/11 10:15:48;;;;;;;33.65;31.75;;;;;;;;;;5069119;28;20032;-56
2022/04/11 10:18:16;;;;;;;44.00;41.70;;;;;;;;;;5075710;28;20706;-55
2022/04/11 10:20:44;;;;;;;62.58;59.35;;;;;;;;;;5073905;28;20033;-55
2022/04/11 10:23:13;;;;;;;60.83;57.72;;;;;;;;;;5062965;28;20037;-55
2022/04/11 10:25:45;;;;;;;56.65;53.72;;;;;;;;;;5068206;28;20062;-47
2022/04/11 10:28:30;;;;;;;78.78;74.80;;;;;;;;;;5070152;28;20497;-50
2022/04/11 10:31:34;;;;;;;37.85;35.85;;;;;;;;;;5065931;28;20083;-48
2022/04/11 10:33:59;;;;;;;29.45;27.90;;;;;;;;;;5072631;28;20470;-48
2022/04/11 10:36:33;;;;;;;36.50;34.60;;;;;;;;;;5070178;28;20058;-55
2022/04/11 10:39:14;;;;;;;28.67;27.17;;;;;;;;;;5070922;28;20032;-48
2022/04/11 10:41:58;;;;;;;30.30;28.60;;;;;;;;;;5065856;28;20040;-56
2022/04/11 10:44:42;;;;;;;34.50;32.70;;;;;;;;;;5070337;28;21001;-49
2022/04/11 10:47:07;;;;;;;47.47;45.05;;;;;;;;;;5065140;28;20040;-48
2022/04/11 10:50:15;;;;;;;49.30;46.72;;;;;;;;;;5067253;28;20044;-49
2022/04/11 10:52:41;;;;;;;55.17;52.40;;;;;;;;;;5066389;28;20072;-50
2022/04/11 10:55:17;;;;;;;32.15;30.45;;;;;;;;;;5071085;28;20484;-49
2022/04/11 10:57:45;;;;;;;65.03;61.72;;;;;;;;;;5070861;28;20051;-48
2022/04/11 11:00:17;;;;;;;55.00;52.20;;;;;;;;;;5063466;28;20131;-49
2022/04/11 11:02:49;;;;;;;61.05;57.72;;;;;;;;;;5064977;28;20040;-47
2022/04/11 11:05:24;;;;;;;62.33;59.22;;;;;;;;;;5066074;28;20036;-51
2022/04/11 11:07:49;;;;;;;58.78;55.80;;;;;;;;;;5066355;28;20118;-50
2022/04/11 11:10:26;;;;;;;67.53;64.13;;;;;;;;;;5058871;28;20041;-50
2022/04/11 11:12:52;;;;;;;57.28;54.40;;;;;;;;;;5061426;28;20055;-54
2022/04/11 11:15:30;;;;;;;64.78;61.53;;;;;;;;;;5051002;28;20480;-53
2022/04/11 11:17:57;;;;;;;61.78;58.67;;;;;;;;;;5064024;28;20032;-52
2022/04/11 11:20:23;;;;;;;75.55;71.75;;;;;;;;;;5065435;28;20044;-55
2022/04/11 11:23:31;;;;;;;50.95;48.35;;;;;;;;;;5062441;28;20041;-57
2022/04/11 11:26:13;;;;;;;35.20;33.40;;;;;;;;;;5064981;28;20119;-55
2022/04/11 11:28:42;;;;;;;58.58;55.58;;;;;;;;;;5069548;28;20040;-54
2022/04/11 11:31:08;;;;;;;27.30;25.85;;;;;;;;;;5066175;28;20043;-55
2022/04/11 11:33:33;;;;;;;21.80;20.60;;;;;;;;;;5065485;28;20036;-54
2022/04/11 11:35:59;;;;;;;21.17;20.00;;;;;;;;;;5065317;28;20070;-55
2022/04/11 11:38:26;;;;;;;16.10;15.20;;;;;;;;;;5069232;28;20149;-54
2022/04/11 11:40:57;;;;;;;24.35;22.98;;;;;;;;;;5067004;28;20369;-54
2022/04/11 11:43:24;;;;;;;22.67;21.48;;;;;;;;;;5066061;28;20405;-54
2022/04/11 11:45:50;;;;;;;18.25;17.27;;;;;;;;;;5067841;28;20071;-57
2022/04/11 11:48:33;;;;;;;18.33;17.30;;;;;;;;;;5070154;28;20127;-55
2022/04/11 11:51:01;;;;;;;20.58;19.48;;;;;;;;;;5067018;28;20032;-52
2022/04/11 11:53:43;;;;;;;32.15;30.50;;;;;;;;;;5065853;28;20032;-52
2022/04/11 11:56:09;;;;;;;18.23;17.23;;;;;;;;;;5073023;28;20024;-54
2022/04/11 11:58:36;;;;;;;16.52;15.60;;;;;;;;;;5064176;28;20058;-55
2022/04/11 12:01:03;;;;;;;17.75;16.75;;;;;;;;;;5066431;28;20528;-50
2022/04/11 12:06:13;;;;;;;17.00;16.05;;;;;;;;;;5067755;28;20075;-54
2022/04/11 12:08:39;;;;;;;25.88;24.27;;;;;;;;;;5069231;28;20840;-53
2022/04/11 12:11:04;;;;;;;22.70;21.50;;;;;;;;;;5067075;28;20120;-55
2022/04/11 12:13:32;;;;;;;11.40;10.70;;;;;;;;;;5064007;28;20040;-55
2022/04/11 12:16:17;;;;;;;15.05;14.18;;;;;;;;;;5064264;28;20449;-53
2022/04/11 12:18:50;;;;;;;14.00;13.10;;;;;;;;;;5064074;28;20070;-54
2022/04/11 12:21:16;;;;;;;15.68;14.77;;;;;;;;;;5064320;28;20041;-55
2022/04/11 12:23:48;;;;;;;24.02;22.73;;;;;;;;;;5066710;28;20085;-51
2022/04/11 12:26:31;;;;;;;15.30;14.40;;;;;;;;;;5061870;28;20039;-51
2022/04/11 12:28:57;;;;;;;11.00;10.30;;;;;;;;;;5068661;28;20481;-53
2022/04/11 12:31:23;;;;;;;14.50;13.57;;;;;;;;;;5069017;28;20555;-54
2022/04/11 12:33:50;;;;;;;13.38;12.57;;;;;;;;;;5067728;28;20033;-54
2022/04/11 12:36:30;;;;;;;15.30;14.40;;;;;;;;;;5067058;28;20472;-51
2022/04/11 12:39:00;;;;;;;11.45;10.75;;;;;;;;;;5071479;28;20036;-56
2022/04/11 12:41:31;;;;;;;9.70;9.10;;;;;;;;;;5070373;28;20036;-52
2022/04/11 12:44:12;;;;;;;11.15;10.45;;;;;;;;;;5073266;28;20443;-54
2022/04/11 12:46:43;;;;;;;13.40;12.60;;;;;;;;;;5069648;28;20040;-55
2022/04/11 12:49:12;;;;;;;12.25;11.55;;;;;;;;;;5072126;28;20133;-55
2022/04/11 12:51:39;;;;;;;12.73;12.00;;;;;;;;;;5069235;28;20447;-55
2022/04/11 12:54:13;;;;;;;11.65;10.95;;;;;;;;;;5070179;28;20083;-56
2022/04/11 12:56:47;;;;;;;10.45;9.82;;;;;;;;;;5071835;28;20029;-55
2022/04/11 12:59:30;;;;;;;9.10;8.40;;;;;;;;;;5068576;28;20041;-56
2022/04/11 13:02:15;;;;;;;12.65;11.95;;;;;;;;;;5070326;28;20063;-55
2022/04/11 13:04:51;;;;;;;10.45;9.82;;;;;;;;;;5066386;28;20105;-55
2022/04/11 13:07:19;;;;;;;16.73;15.82;;;;;;;;;;5063460;28;20275;-54
2022/04/11 13:09:45;;;;;;;12.98;12.20;;;;;;;;;;5062553;28;20037;-55
2022/04/11 13:12:12;;;;;;;12.88;12.10;;;;;;;;;;5063752;28;20548;-54
2022/04/11 13:14:39;;;;;;;9.40;8.80;;;;;;;;;;5068422;28;20066;-55
2022/04/11 13:19:49;;;;;;;8.90;8.30;;;;;;;;;;5066602;28;20040;-55
2022/04/11 13:22:15;;;;;;;10.05;9.45;;;;;;;;;;5065289;28;20032;-54
2022/04/11 13:24:40;;;;;;;14.35;13.50;;;;;;;;;;5068306;28;20028;-55
2022/04/11 13:27:06;;;;;;;8.95;8.35;;;;;;;;;;5060034;28;20034;-54
2022/04/11 13:29:31;;;;;;;11.32;10.50;;;;;;;;;;5064718;28;20039;-55
2022/04/11 13:31:58;;;;;;;11.00;10.30;;;;;;;;;;5064701;28;20889;-46
2022/04/11 13:34:23;;;;;;;12.50;11.80;;;;;;;;;;5065335;28;20029;-47
2022/04/11 13:36:49;;;;;;;13.68;12.68;;;;;;;;;;5066420;28;20649;-53
2022/04/11 13:39:14;;;;;;;13.88;13.07;;;;;;;;;;5065159;28;20081;-54
2022/04/11 13:41:40;;;;;;;14.07;13.18;;;;;;;;;;5065722;28;20051;-55
2022/04/11 13:44:06;;;;;;;16.92;15.95;;;;;;;;;;5067331;28;20170;-47
2022/04/11 13:46:31;;;;;;;16.15;13.68;;;;;;;;;;5068965;28;20071;-55
2022/04/11 13:48:57;;;;;;;19.55;18.48;;;;;;;;;;5066040;28;20567;-55
2022/04/11 13:51:24;;;;;;;10.35;9.75;;;;;;;;;;5066319;28;20054;-56
2022/04/11 13:53:50;;;;;;;13.57;12.77;;;;;;;;;;5065462;28;20156;-50
2022/04/11 13:56:16;;;;;;;14.75;13.95;;;;;;;;;;5067425;28;20043;-56
2022/04/11 13:58:42;;;;;;;14.13;13.25;;;;;;;;;;5066492;28;20414;-56
2022/04/11 14:01:07;;;;;;;11.63;10.93;;;;;;;;;;5067339;28;20039;-55
2022/04/11 14:03:34;;;;;;;9.75;9.15;;;;;;;;;;5061052;28;20032;-55
2022/04/11 14:05:59;;;;;;;12.65;11.90;;;;;;;;;;5063663;28;20028;-55
2022/04/11 14:08:26;;;;;;;8.15;7.65;;;;;;;;;;5066011;28;22607;-56
2022/04/11 14:10:52;;;;;;;10.18;9.50;;;;;;;;;;5066063;28;20038;-55
2022/04/11 14:13:18;;;;;;;7.65;7.15;;;;;;;;;;5065916;28;20024;-56
2022/04/11 14:15:44;;;;;;;7.63;7.13;;;;;;;;;;5066548;28;20044;-48
2022/04/11 14:18:09;;;;;;;8.93;8.23;;;;;;;;;;5061865;28;20032;-51
2022/04/11 14:20:35;;;;;;;7.65;7.07;;;;;;;;;;5065629;28;20051;-55
2022/04/11 14:23:00;;;;;;;10.50;9.85;;;;;;;;;;5067140;28;20032;-50
2022/04/11 14:25:27;;;;;;;10.07;9.48;;;;;;;;;;5062157;28;20032;-48
2022/04/11 14:27:54;;;;;;;9.35;8.75;;;;;;;;;;5061527;28;20044;-48
2022/04/11 14:30:20;;;;;;;12.25;11.48;;;;;;;;;;5066073;28;20101;-46
2022/04/11 14:32:45;;;;;;;9.23;8.63;;;;;;;;;;5066223;28;20454;-49
2022/04/11 14:35:11;;;;;;;11.18;10.48;;;;;;;;;;5065529;28;20256;-51
2022/04/11 14:37:36;;;;;;;11.50;10.70;;;;;;;;;;5066821;28;20476;-47
2022/04/11 14:40:02;;;;;;;10.27;9.68;;;;;;;;;;5065572;28;20033;-49